createdAt,value
2023-03-17T00:01:39.730Z,35.00
2023-03-17T00:04:06.309Z,35.00
2023-03-17T00:06:32.813Z,35.60
2023-03-17T00:08:59.253Z,34.90
2023-03-17T00:11:25.720Z,34.50
2023-03-17T00:13:52.200Z,35.00
2023-03-17T00:16:18.825Z,35.00
2023-03-17T00:18:45.347Z,35.00
2023-03-17T00:21:11.852Z,35.00
2023-03-17T00:23:38.321Z,34.40
2023-03-17T00:26:04.818Z,35.00
2023-03-17T00:28:31.283Z,34.90
2023-03-17T00:30:57.757Z,34.30
2023-03-17T00:33:24.264Z,34.90
2023-03-17T00:35:50.755Z,34.80
2023-03-17T00:38:17.235Z,34.90
2023-03-17T00:40:43.669Z,34.60
2023-03-17T00:43:10.179Z,34.90
2023-03-17T00:45:36.624Z,34.80
2023-03-17T00:48:03.110Z,34.10
2023-03-17T00:50:29.781Z,34.10
2023-03-17T00:52:56.402Z,34.70
2023-03-17T00:55:22.944Z,34.60
2023-03-17T00:57:49.428Z,34.70
2023-03-17T01:00:15.908Z,34.70
2023-03-17T01:02:42.381Z,34.20
2023-03-17T01:05:08.870Z,34.70
2023-03-17T01:07:35.394Z,34.70
2023-03-17T01:10:01.942Z,34.70
2023-03-17T01:12:28.421Z,34.10
2023-03-17T01:14:54.949Z,34.60
2023-03-17T01:17:21.416Z,34.60
2023-03-17T01:19:47.897Z,34.60
2023-03-17T01:22:14.367Z,34.00
2023-03-17T01:24:40.855Z,34.60
2023-03-17T01:27:07.374Z,34.60
2023-03-17T01:29:33.882Z,34.60
2023-03-17T01:32:00.448Z,34.00
2023-03-17T01:34:26.939Z,34.70
2023-03-17T01:36:53.436Z,34.60
2023-03-17T01:39:19.958Z,34.50
2023-03-17T01:41:46.489Z,34.00
2023-03-17T01:44:13.023Z,34.50
2023-03-17T01:46:39.488Z,34.50
2023-03-17T01:49:06.006Z,34.50
2023-03-17T01:51:32.529Z,33.90
2023-03-17T01:53:59.020Z,34.50
2023-03-17T01:56:25.514Z,34.60
2023-03-17T01:58:52.002Z,34.60
2023-03-17T02:01:18.498Z,34.60
2023-03-17T02:03:45.019Z,34.70
2023-03-17T02:06:11.726Z,34.70
2023-03-17T02:08:38.226Z,34.70
2023-03-17T02:11:04.735Z,34.10
2023-03-17T02:13:31.296Z,34.70
2023-03-17T02:15:57.801Z,34.20
2023-03-17T02:18:24.336Z,34.70
2023-03-17T02:20:50.851Z,34.10
2023-03-17T02:23:17.342Z,34.70
2023-03-17T02:25:43.813Z,34.60
2023-03-17T02:28:10.347Z,34.00
2023-03-17T02:30:36.952Z,33.90
2023-03-17T02:33:03.471Z,34.60
2023-03-17T02:35:30.187Z,34.50
2023-03-17T02:37:56.766Z,34.50
2023-03-17T02:40:23.302Z,34.00
2023-03-17T02:42:49.799Z,34.50
2023-03-17T02:45:16.356Z,34.50
2023-03-17T02:47:42.804Z,34.40
2023-03-17T02:50:09.305Z,34.40
2023-03-17T02:52:35.791Z,33.80
2023-03-17T02:55:02.283Z,34.30
2023-03-17T02:57:28.742Z,34.30
2023-03-17T02:59:55.211Z,34.40
2023-03-17T03:02:21.766Z,34.40
2023-03-17T03:04:48.306Z,33.90
2023-03-17T03:07:14.799Z,34.40
2023-03-17T03:09:41.299Z,34.40
2023-03-17T03:12:07.820Z,34.30
2023-03-17T03:14:34.276Z,34.20
2023-03-17T03:17:00.754Z,34.20
2023-03-17T03:19:27.250Z,34.20
2023-03-17T03:21:53.767Z,34.20
2023-03-17T03:24:20.279Z,34.20
2023-03-17T03:26:46.760Z,34.20
2023-03-17T03:29:13.275Z,34.20
2023-03-17T03:31:39.783Z,34.20
2023-03-17T03:34:06.264Z,34.20
2023-03-17T03:36:32.739Z,34.20
2023-03-17T03:38:59.257Z,33.90
2023-03-17T03:41:25.745Z,33.70
2023-03-17T03:43:52.269Z,34.20
2023-03-17T03:46:18.783Z,34.20
2023-03-17T03:48:45.318Z,34.10
2023-03-17T03:51:11.855Z,33.60
2023-03-17T03:53:38.369Z,33.30
2023-03-17T03:56:04.919Z,34.10
2023-03-17T03:58:31.380Z,34.10
2023-03-17T04:00:57.880Z,33.60
2023-03-17T04:03:24.381Z,34.10
2023-03-17T04:05:50.846Z,34.10
2023-03-17T04:08:17.388Z,34.10
2023-03-17T04:10:43.871Z,33.40
2023-03-17T04:13:10.340Z,33.60
2023-03-17T04:15:36.840Z,34.10
2023-03-17T04:18:03.328Z,34.10
2023-03-17T04:20:30.091Z,33.60
2023-03-17T04:22:56.752Z,34.10
2023-03-17T04:25:23.225Z,34.00
2023-03-17T04:27:49.727Z,34.10
2023-03-17T04:30:16.219Z,34.10
2023-03-17T04:32:42.789Z,34.10
2023-03-17T04:35:09.300Z,34.00
2023-03-17T04:37:35.787Z,34.00
2023-03-17T04:40:02.291Z,34.10
2023-03-17T04:42:28.743Z,33.50
2023-03-17T04:44:55.274Z,34.10
2023-03-17T04:47:21.736Z,34.00
2023-03-17T04:49:48.189Z,34.00
2023-03-17T04:52:14.648Z,33.40
2023-03-17T04:54:41.100Z,34.00
2023-03-17T04:57:07.587Z,34.00
2023-03-17T04:59:34.049Z,34.00
2023-03-17T05:02:00.578Z,34.00
2023-03-17T05:04:31.752Z,34.00
2023-03-17T05:06:58.679Z,34.10
2023-03-17T05:09:25.158Z,33.60
2023-03-17T05:11:51.640Z,33.70
2023-03-17T05:14:18.135Z,34.30
2023-03-17T05:16:44.636Z,34.40
2023-03-17T05:19:11.108Z,34.20
2023-03-17T05:21:37.571Z,33.70
2023-03-17T05:24:04.032Z,34.30
2023-03-17T05:26:30.532Z,34.20
2023-03-17T05:28:57.008Z,34.20
2023-03-17T05:31:23.533Z,33.60
2023-03-17T05:33:50.049Z,34.10
2023-03-17T05:36:16.550Z,34.00
2023-03-17T05:38:43.023Z,34.00
2023-03-17T05:41:09.528Z,33.60
2023-03-17T05:43:36.021Z,34.20
2023-03-17T05:46:02.517Z,34.10
2023-03-17T05:48:29.040Z,34.00
2023-03-17T05:50:55.660Z,33.30
2023-03-17T05:53:22.156Z,33.30
2023-03-17T05:55:48.625Z,33.90
2023-03-17T05:58:15.092Z,34.10
2023-03-17T06:00:41.580Z,34.30
2023-03-17T06:03:08.118Z,34.80
2023-03-17T06:05:34.664Z,34.50
2023-03-17T06:08:01.136Z,34.50
2023-03-17T06:10:27.617Z,34.20
2023-03-17T06:12:54.083Z,34.70
2023-03-17T06:15:20.536Z,34.60
2023-03-17T06:17:47.050Z,34.70
2023-03-17T06:20:13.491Z,34.70
2023-03-17T06:22:51.676Z,34.20
2023-03-17T06:25:27.458Z,34.60
2023-03-17T06:27:53.946Z,34.70
2023-03-17T06:30:20.443Z,34.60
2023-03-17T06:32:46.957Z,34.70
2023-03-17T06:35:13.445Z,34.80
2023-03-17T06:37:39.898Z,35.00
2023-03-17T06:40:06.346Z,35.10
2023-03-17T06:42:32.817Z,35.10
2023-03-17T06:44:59.313Z,35.10
2023-03-17T06:47:26.137Z,35.00
2023-03-17T06:49:52.677Z,34.90
2023-03-17T06:52:19.149Z,34.20
2023-03-17T06:54:45.653Z,34.80
2023-03-17T06:57:12.116Z,34.80
2023-03-17T06:59:38.578Z,34.70
2023-03-17T07:02:05.064Z,34.70
2023-03-17T07:04:31.614Z,34.70
2023-03-17T07:06:58.126Z,34.60
2023-03-17T07:09:24.609Z,34.50
2023-03-17T07:11:51.071Z,34.60
2023-03-17T07:14:17.553Z,34.50
2023-03-17T07:16:44.049Z,34.50
2023-03-17T07:19:10.544Z,34.50
2023-03-17T07:21:37.038Z,33.90
2023-03-17T07:24:03.527Z,34.40
2023-03-17T07:26:30.019Z,34.50
2023-03-17T07:28:56.493Z,34.40
2023-03-17T07:31:23.069Z,34.40
2023-03-17T07:33:49.570Z,34.40
2023-03-17T07:36:16.050Z,34.30
2023-03-17T07:38:42.603Z,34.40
2023-03-17T07:41:09.125Z,33.80
2023-03-17T07:43:35.628Z,34.30
2023-03-17T07:46:03.556Z,34.30
2023-03-17T07:48:31.609Z,34.30
2023-03-17T07:50:58.073Z,34.40
2023-03-17T07:53:24.519Z,34.40
2023-03-17T07:55:51.046Z,34.30
2023-03-17T07:58:17.508Z,34.30
2023-03-17T08:00:43.999Z,34.50
2023-03-17T08:03:11.199Z,34.30
2023-03-17T08:05:37.770Z,34.30
2023-03-17T08:08:04.309Z,34.30
2023-03-17T08:10:31.060Z,33.30
2023-03-17T08:12:57.816Z,33.80
2023-03-17T08:15:24.299Z,34.30
2023-03-17T08:17:50.933Z,34.30
2023-03-17T08:20:17.424Z,34.30
2023-03-17T08:22:43.968Z,34.30
2023-03-17T08:25:10.543Z,34.30
2023-03-17T08:27:37.082Z,34.30
2023-03-17T08:30:03.547Z,34.40
2023-03-17T08:32:30.078Z,33.80
2023-03-17T08:34:56.614Z,34.00
2023-03-17T08:37:23.079Z,34.40
2023-03-17T08:39:49.536Z,33.80
2023-03-17T08:42:16.036Z,33.90
2023-03-17T08:44:44.068Z,34.50
2023-03-17T08:47:10.677Z,34.50
2023-03-17T08:49:37.169Z,34.50
2023-03-17T08:52:03.701Z,34.50
2023-03-17T08:54:30.170Z,34.00
2023-03-17T08:56:56.643Z,34.50
2023-03-17T08:59:23.227Z,34.50
2023-03-17T09:01:49.776Z,34.50
2023-03-17T09:04:16.309Z,34.60
2023-03-17T09:06:59.396Z,34.60
2023-03-17T09:09:29.077Z,34.50
2023-03-17T09:11:55.586Z,33.90
2023-03-17T09:14:22.067Z,34.60
2023-03-17T09:16:48.516Z,34.50
2023-03-17T09:19:14.996Z,34.50
2023-03-17T09:21:41.450Z,34.00
2023-03-17T09:24:07.885Z,34.50
2023-03-17T09:26:34.336Z,34.50
2023-03-17T09:29:03.116Z,34.40
2023-03-17T09:31:30.313Z,34.40
2023-03-17T09:33:56.838Z,34.50
2023-03-17T09:36:23.568Z,34.40
2023-03-17T09:38:50.119Z,34.40
2023-03-17T09:41:16.660Z,34.50
2023-03-17T09:43:43.121Z,34.60
2023-03-17T09:46:09.647Z,34.20
2023-03-17T09:48:36.153Z,34.60
2023-03-17T09:51:02.684Z,33.90
2023-03-17T09:53:29.189Z,34.60
2023-03-17T09:55:55.657Z,34.60
2023-03-17T09:58:22.152Z,34.60
2023-03-17T10:00:48.642Z,34.70
2023-03-17T10:03:15.132Z,34.10
2023-03-17T10:05:41.678Z,34.80
2023-03-17T10:08:19.236Z,34.80
2023-03-17T10:10:54.684Z,34.80
2023-03-17T10:13:21.123Z,34.80
2023-03-17T10:15:47.642Z,34.80
2023-03-17T10:18:14.202Z,34.30
2023-03-17T10:20:40.687Z,34.20
2023-03-17T10:23:07.177Z,34.80
2023-03-17T10:25:34.029Z,34.70
2023-03-17T10:28:00.779Z,34.70
2023-03-17T10:30:27.369Z,34.60
2023-03-17T10:32:53.903Z,34.20
2023-03-17T10:35:20.404Z,34.80
2023-03-17T10:37:46.909Z,34.80
2023-03-17T10:40:13.356Z,34.30
2023-03-17T10:42:39.867Z,34.90
2023-03-17T10:45:06.367Z,34.80
2023-03-17T10:47:32.902Z,34.80
2023-03-17T10:49:59.397Z,34.90
2023-03-17T10:52:27.089Z,34.30
2023-03-17T10:54:53.592Z,34.90
2023-03-17T10:57:20.095Z,34.90
2023-03-17T10:59:46.567Z,34.90
2023-03-17T11:02:13.058Z,34.90
2023-03-17T11:04:39.503Z,34.90
2023-03-17T11:07:05.983Z,34.90
2023-03-17T11:09:32.457Z,34.80
2023-03-17T11:11:58.936Z,34.70
2023-03-17T11:14:25.437Z,34.70
2023-03-17T11:16:51.989Z,34.80
2023-03-17T11:19:18.526Z,34.80
2023-03-17T11:21:45.027Z,34.20
2023-03-17T11:24:11.524Z,34.90
2023-03-17T11:26:38.025Z,35.10
2023-03-17T11:29:04.550Z,35.00
2023-03-17T11:31:31.133Z,35.10
2023-03-17T11:33:57.743Z,35.10
2023-03-17T11:36:24.242Z,35.20
2023-03-17T11:38:50.710Z,36.30
2023-03-17T11:41:17.227Z,35.00
2023-03-17T11:43:43.714Z,34.90
2023-03-17T11:46:10.257Z,35.70
2023-03-17T11:48:36.787Z,35.60
2023-03-17T11:51:03.264Z,35.10
2023-03-17T11:53:29.769Z,35.60
2023-03-17T11:55:56.222Z,35.60
2023-03-17T11:58:22.736Z,35.60
2023-03-17T12:00:49.180Z,35.10
2023-03-17T12:05:42.774Z,35.00
2023-03-17T12:08:09.268Z,35.50
2023-03-17T12:10:35.742Z,34.80
2023-03-17T12:13:02.253Z,35.40
2023-03-17T12:15:28.771Z,35.50
2023-03-17T12:17:55.268Z,34.90
2023-03-17T12:20:21.733Z,35.50
2023-03-17T12:22:48.241Z,35.50
2023-03-17T12:25:14.745Z,35.50
2023-03-17T12:27:41.271Z,35.50
2023-03-17T12:30:07.764Z,35.50
2023-03-17T12:32:34.299Z,34.90
2023-03-17T12:35:00.833Z,35.70
2023-03-17T12:37:27.396Z,35.50
2023-03-17T12:39:53.873Z,35.50
2023-03-17T12:42:20.346Z,35.10
2023-03-17T12:44:46.814Z,35.60
2023-03-17T12:47:13.287Z,35.60
2023-03-17T12:49:39.756Z,35.90
2023-03-17T12:52:06.246Z,35.60
2023-03-17T12:54:32.759Z,35.00
2023-03-17T12:56:59.342Z,35.70
2023-03-17T12:59:25.846Z,34.30
2023-03-17T13:01:52.350Z,35.00
2023-03-17T13:04:18.872Z,35.60
2023-03-17T13:06:45.343Z,35.60
2023-03-17T13:09:11.844Z,35.60
2023-03-17T13:11:38.425Z,35.10
2023-03-17T13:14:04.944Z,35.60
2023-03-17T13:16:31.425Z,35.60
2023-03-17T13:18:57.954Z,35.60
2023-03-17T13:21:24.425Z,34.50
2023-03-17T13:23:50.884Z,35.60
2023-03-17T13:26:17.365Z,35.80
2023-03-17T13:28:43.876Z,35.80
2023-03-17T13:31:10.432Z,35.30
2023-03-17T13:33:36.975Z,35.80
2023-03-17T13:36:03.528Z,35.90
2023-03-17T13:38:30.048Z,36.00
2023-03-17T13:40:56.556Z,35.60
2023-03-17T13:43:23.051Z,36.10
2023-03-17T13:45:49.552Z,36.10
2023-03-17T13:48:16.101Z,36.10
2023-03-17T13:50:42.598Z,35.80
2023-03-17T13:53:09.107Z,36.00
2023-03-17T13:55:35.639Z,35.70
2023-03-17T13:58:02.156Z,36.00
2023-03-17T14:00:28.823Z,35.60
2023-03-17T14:02:55.393Z,36.00
2023-03-17T14:05:21.871Z,36.10
2023-03-17T14:07:48.364Z,36.00
2023-03-17T14:10:14.895Z,36.10
2023-03-17T14:12:41.348Z,35.60
2023-03-17T14:15:08.582Z,36.20
2023-03-17T14:17:35.151Z,36.00
2023-03-17T14:20:01.689Z,36.10
2023-03-17T14:22:28.157Z,36.00
2023-03-17T14:24:54.645Z,36.00
2023-03-17T14:27:21.138Z,36.00
2023-03-17T14:29:47.622Z,36.10
2023-03-17T14:32:14.087Z,36.00
2023-03-17T14:34:40.608Z,36.10
2023-03-17T14:37:07.092Z,36.20
2023-03-17T14:39:33.548Z,36.20
2023-03-17T14:42:00.038Z,36.10
2023-03-17T14:44:26.532Z,36.10
2023-03-17T14:46:53.060Z,36.10
2023-03-17T14:49:19.557Z,36.10
2023-03-17T14:51:46.050Z,36.10
2023-03-17T14:54:12.529Z,36.20
2023-03-17T14:56:39.072Z,36.20
2023-03-17T14:59:05.544Z,36.20
2023-03-17T15:01:32.148Z,35.60
2023-03-17T15:03:58.827Z,36.20
2023-03-17T15:06:25.337Z,36.30
2023-03-17T15:08:51.828Z,36.20
2023-03-17T15:11:18.320Z,36.20
2023-03-17T15:13:44.795Z,37.50
2023-03-17T15:16:11.280Z,36.20
2023-03-17T15:18:37.724Z,36.40
2023-03-17T15:21:04.185Z,35.80
2023-03-17T15:23:30.648Z,35.60
2023-03-17T15:25:57.130Z,36.20
2023-03-17T15:28:23.651Z,36.20
2023-03-17T15:30:50.539Z,36.20
2023-03-17T15:33:17.233Z,36.10
2023-03-17T15:35:43.842Z,36.20
2023-03-17T15:38:10.386Z,36.20
2023-03-17T15:40:36.895Z,35.80
2023-03-17T15:43:03.344Z,36.20
2023-03-17T15:45:29.968Z,36.20
2023-03-17T15:47:56.426Z,36.20
2023-03-17T15:50:22.913Z,36.10
2023-03-17T15:52:49.366Z,35.60
2023-03-17T15:55:15.877Z,35.70
2023-03-17T15:57:46.173Z,36.20
2023-03-17T16:00:17.369Z,36.20
2023-03-17T16:02:43.860Z,35.70
2023-03-17T16:05:10.381Z,36.60
2023-03-17T16:07:36.846Z,36.70
2023-03-17T16:10:03.416Z,36.50
2023-03-17T16:12:30.058Z,36.60
2023-03-17T16:14:56.548Z,36.50
2023-03-17T16:17:24.263Z,36.60
2023-03-17T16:19:51.758Z,36.70
2023-03-17T16:22:18.276Z,36.20
2023-03-17T16:24:44.781Z,36.70
2023-03-17T16:27:11.266Z,36.60
2023-03-17T16:29:37.781Z,36.30
2023-03-17T16:32:04.297Z,35.90
2023-03-17T16:34:30.776Z,36.40
2023-03-17T16:36:57.287Z,36.40
2023-03-17T16:39:23.794Z,36.70
2023-03-17T16:41:50.266Z,36.10
2023-03-17T16:44:16.814Z,36.90
2023-03-17T16:46:43.333Z,37.00
2023-03-17T16:49:09.858Z,36.40
2023-03-17T16:51:36.321Z,36.60
2023-03-17T16:54:02.826Z,37.00
2023-03-17T16:56:29.491Z,36.70
2023-03-17T16:58:56.002Z,36.80
2023-03-17T17:01:22.544Z,36.90
2023-03-17T17:03:49.059Z,37.20
2023-03-17T17:06:15.579Z,37.70
2023-03-17T17:08:42.027Z,37.60
2023-03-17T17:11:08.538Z,37.60
2023-03-17T17:13:35.016Z,36.70
2023-03-17T17:16:01.560Z,37.70
2023-03-17T17:18:28.071Z,37.60
2023-03-17T17:20:55.045Z,36.80
2023-03-17T17:23:21.548Z,37.40
2023-03-17T17:25:48.077Z,37.20
2023-03-17T17:28:14.585Z,37.50
2023-03-17T17:30:41.062Z,37.50
2023-03-17T17:33:07.584Z,37.70
2023-03-17T17:35:34.086Z,37.70
2023-03-17T17:38:00.626Z,37.40
2023-03-17T17:40:27.093Z,37.70
2023-03-17T17:42:53.550Z,37.20
2023-03-17T17:45:20.011Z,37.70
2023-03-17T17:47:46.517Z,37.90
2023-03-17T17:50:13.089Z,37.60
2023-03-17T17:52:39.559Z,37.00
2023-03-17T17:55:06.077Z,37.90
2023-03-17T17:57:32.637Z,37.90
2023-03-17T17:59:59.160Z,37.60
2023-03-17T18:02:25.641Z,37.00
2023-03-17T18:04:52.129Z,37.60
2023-03-17T18:07:18.657Z,37.50
2023-03-17T18:09:45.140Z,37.00
2023-03-17T18:12:11.646Z,37.50
2023-03-17T18:14:38.187Z,37.40
2023-03-17T18:17:04.667Z,37.30
2023-03-17T18:19:31.163Z,37.50
2023-03-17T18:21:57.687Z,36.70
2023-03-17T18:24:24.183Z,37.40
2023-03-17T18:26:50.705Z,37.30
2023-03-17T18:29:17.164Z,37.50
2023-03-17T18:31:43.694Z,36.90
2023-03-17T18:34:10.218Z,37.30
2023-03-17T18:36:36.740Z,37.60
2023-03-17T18:39:03.227Z,37.70
2023-03-17T18:41:29.795Z,36.90
2023-03-17T18:43:56.254Z,37.50
2023-03-17T18:46:22.814Z,37.40
2023-03-17T18:48:49.314Z,37.30
2023-03-17T18:51:15.759Z,37.30
2023-03-17T18:53:42.234Z,37.40
2023-03-17T18:56:08.682Z,37.40
2023-03-17T18:58:35.186Z,37.50
2023-03-17T19:01:01.749Z,36.90
2023-03-17T19:03:28.339Z,37.40
2023-03-17T19:05:54.809Z,37.30
2023-03-17T19:08:21.261Z,37.60
2023-03-17T19:10:47.746Z,37.40
2023-03-17T19:13:14.222Z,37.70
2023-03-17T19:15:40.764Z,37.50
2023-03-17T19:18:07.268Z,37.40
2023-03-17T19:20:34.876Z,37.00
2023-03-17T19:23:01.383Z,37.40
2023-03-17T19:25:27.904Z,37.40
2023-03-17T19:27:54.374Z,36.80
2023-03-17T19:30:20.847Z,37.40
2023-03-17T19:32:47.371Z,36.80
2023-03-17T19:35:13.824Z,37.40
2023-03-17T19:37:40.340Z,37.60
2023-03-17T19:40:06.823Z,37.50
2023-03-17T19:42:33.332Z,36.90
2023-03-17T19:44:59.835Z,37.40
2023-03-17T19:47:26.333Z,37.60
2023-03-17T19:49:52.801Z,36.90
2023-03-17T19:52:19.329Z,37.50
2023-03-17T19:54:45.837Z,37.50
2023-03-17T19:57:12.331Z,37.40
2023-03-17T19:59:38.847Z,37.60
2023-03-17T20:02:05.331Z,36.80
2023-03-17T20:04:31.875Z,38.00
2023-03-17T20:06:58.382Z,37.50
2023-03-17T20:09:24.872Z,36.90
2023-03-17T20:11:51.314Z,37.40
2023-03-17T20:14:17.790Z,36.80
2023-03-17T20:16:44.291Z,37.30
2023-03-17T20:19:10.781Z,37.40
2023-03-17T20:21:37.239Z,36.80
2023-03-17T20:24:03.705Z,37.40
2023-03-17T20:26:30.214Z,37.30
2023-03-17T20:28:56.676Z,37.50
2023-03-17T20:31:23.147Z,37.50
2023-03-17T20:33:49.665Z,37.40
2023-03-17T20:36:16.130Z,36.80
2023-03-17T20:38:42.587Z,37.50
2023-03-17T20:41:09.062Z,36.90
2023-03-17T20:43:35.581Z,37.40
2023-03-17T20:46:02.032Z,36.80
2023-03-17T20:48:28.526Z,37.40
2023-03-17T20:50:54.981Z,36.80
2023-03-17T20:53:21.527Z,37.30
2023-03-17T20:55:47.991Z,37.50
2023-03-17T20:58:14.508Z,37.60
2023-03-17T21:00:41.006Z,37.20
2023-03-17T21:03:07.485Z,37.60
2023-03-17T21:05:34.023Z,37.30
2023-03-17T21:08:00.564Z,37.30
2023-03-17T21:10:27.088Z,37.60
2023-03-17T21:12:53.645Z,37.10
2023-03-17T21:15:20.116Z,37.50
2023-03-17T21:17:46.570Z,37.40
2023-03-17T21:20:13.023Z,37.40
2023-03-17T21:22:39.535Z,37.50
2023-03-17T21:25:06.052Z,37.50
2023-03-17T21:27:32.530Z,37.50
2023-03-17T21:29:58.983Z,37.60
2023-03-17T21:32:25.457Z,37.00
2023-03-17T21:34:51.945Z,37.50
2023-03-17T21:37:18.428Z,36.80
2023-03-17T21:39:44.895Z,37.40
2023-03-17T21:42:11.381Z,36.80
2023-03-17T21:44:37.864Z,37.40
2023-03-17T21:47:04.353Z,37.40
2023-03-17T21:49:30.872Z,37.50
2023-03-17T21:51:57.382Z,36.90
2023-03-17T21:54:23.842Z,37.50
2023-03-17T21:56:50.286Z,37.50
2023-03-17T21:59:16.743Z,37.50
2023-03-17T22:01:43.299Z,37.50
2023-03-17T22:04:09.791Z,37.00
2023-03-17T22:06:36.349Z,37.60
2023-03-17T22:09:02.838Z,37.60
2023-03-17T22:11:29.346Z,37.00
2023-03-17T22:13:55.797Z,37.60
2023-03-17T22:16:22.323Z,37.50
2023-03-17T22:18:48.818Z,37.50
2023-03-17T22:21:15.331Z,36.90
2023-03-17T22:23:41.832Z,37.50
2023-03-17T22:26:08.309Z,37.50
2023-03-17T22:28:34.779Z,37.50
2023-03-17T22:31:01.293Z,37.00
2023-03-17T22:33:27.751Z,37.60
2023-03-17T22:35:54.257Z,37.50
2023-03-17T22:38:22.481Z,37.50
2023-03-17T22:40:50.112Z,37.00
2023-03-17T22:43:16.595Z,37.60
2023-03-17T22:45:43.153Z,37.40
2023-03-17T22:48:09.680Z,37.50
2023-03-17T22:50:36.222Z,37.20
2023-03-17T22:53:02.740Z,37.50
2023-03-17T22:55:29.191Z,37.50
2023-03-17T22:57:55.748Z,37.50
2023-03-17T23:00:22.221Z,37.40
2023-03-17T23:02:48.717Z,36.80
2023-03-17T23:05:15.167Z,37.30
2023-03-17T23:07:50.379Z,37.30
2023-03-17T23:10:17.395Z,37.30
2023-03-17T23:12:43.860Z,36.80
2023-03-17T23:15:10.348Z,38.00
2023-03-17T23:17:36.848Z,37.30
2023-03-17T23:20:03.349Z,37.30
2023-03-17T23:22:29.852Z,36.70
2023-03-17T23:24:56.346Z,37.30
2023-03-17T23:27:22.822Z,37.20
2023-03-17T23:29:49.296Z,37.20
2023-03-17T23:32:15.833Z,37.10
2023-03-17T23:34:42.328Z,37.20
2023-03-17T23:37:08.844Z,37.20
2023-03-17T23:39:35.321Z,36.60
2023-03-17T23:42:01.818Z,37.20
2023-03-17T23:44:28.283Z,37.10
2023-03-17T23:46:54.732Z,37.10
2023-03-17T23:49:21.199Z,37.10
2023-03-17T23:51:47.684Z,37.10
2023-03-17T23:54:14.151Z,37.10
2023-03-17T23:56:40.600Z,37.10
2023-03-17T23:59:07.058Z,36.60
